Hooper Bay Airport Hooper Bay US
ICAO: PAHP
IATA:
Category: Medium
Scheduled Services:

Elevation: 13 ft
TransAlt. 18000 ft.

Airport Communications:
AWOS 3:135.1
CTAF:123
KENAI RDO:122.4
TWEB:115.2

PAHP Zoom In..

If you have problems with the map follow the link
https://www.worldairports.se/pages/airport.php?
ICAO=PAHP

Runways:

(A) RW 13 length 3300 ft width 75 ft
---- / hdg 136

(B) RW 31 length 3300 ft width 75 ft
---- / hdg 316

Location; PAHP
Day. 22 / Time. 11.56 Zulu
* Altimeter: 29.33
* Temperature: 04° c. 39.2°f.
* Wind from: 020° Speed 14 kn.
Dewpoint: 02° c.
Visibility: 10 Statute Miles.
Clouds: Overcast 3900 ft.

PAHP 221156Z AUTO 02014KT 10SM OVC039 04/02 A2933 RMK AO2 RAE1059B38E54 SLP969 P0000 60000 T00390022 10039 20033 58002


Wind From 020°
Speed 14 kn.

 
 
jpsmedia.com for Web Design worldairports.se 2018   terms of use